sensor_id;sensor_type;location;lat;lon;timestamp;P1;durP1;ratioP1;P2;durP2;ratioP2
44694;SDS011;32845;59.422;17.930;2023-06-26T00:00:27;9.50;;;3.28;;
44694;SDS011;32845;59.422;17.930;2023-06-26T00:04:58;6.53;;;2.63;;
44694;SDS011;32845;59.422;17.930;2023-06-26T00:09:28;6.22;;;2.53;;
44694;SDS011;32845;59.422;17.930;2023-06-26T00:13:59;4.82;;;2.45;;
44694;SDS011;32845;59.422;17.930;2023-06-26T00:18:30;6.47;;;2.60;;
44694;SDS011;32845;59.422;17.930;2023-06-26T00:23:06;9.23;;;3.05;;
44694;SDS011;32845;59.422;17.930;2023-06-26T00:27:37;5.53;;;2.60;;
44694;SDS011;32845;59.422;17.930;2023-06-26T00:32:13;6.22;;;3.25;;
44694;SDS011;32845;59.422;17.930;2023-06-26T00:36:43;5.35;;;2.95;;
44694;SDS011;32845;59.422;17.930;2023-06-26T00:41:14;9.98;;;3.67;;
44694;SDS011;32845;59.422;17.930;2023-06-26T00:45:44;10.30;;;5.90;;
44694;SDS011;32845;59.422;17.930;2023-06-26T00:50:15;12.18;;;5.07;;
44694;SDS011;32845;59.422;17.930;2023-06-26T00:54:46;9.57;;;4.22;;
44694;SDS011;32845;59.422;17.930;2023-06-26T00:59:17;7.60;;;3.83;;
44694;SDS011;32845;59.422;17.930;2023-06-26T01:03:48;8.45;;;4.05;;
44694;SDS011;32845;59.422;17.930;2023-06-26T01:08:22;7.03;;;3.65;;
44694;SDS011;32845;59.422;17.930;2023-06-26T01:12:54;9.27;;;3.65;;
44694;SDS011;32845;59.422;17.930;2023-06-26T01:17:27;8.13;;;3.65;;
44694;SDS011;32845;59.422;17.930;2023-06-26T01:27:17;7.32;;;3.47;;
44694;SDS011;32845;59.422;17.930;2023-06-26T01:31:57;9.23;;;3.53;;
44694;SDS011;32845;59.422;17.930;2023-06-26T01:36:30;5.88;;;3.33;;
44694;SDS011;32845;59.422;17.930;2023-06-26T01:41:10;4.72;;;2.92;;
44694;SDS011;32845;59.422;17.930;2023-06-26T01:45:41;6.57;;;3.40;;
44694;SDS011;32845;59.422;17.930;2023-06-26T01:50:15;8.88;;;3.28;;
44694;SDS011;32845;59.422;17.930;2023-06-26T02:00:00;7.30;;;3.17;;
44694;SDS011;32845;59.422;17.930;2023-06-26T02:04:32;10.45;;;3.28;;
44694;SDS011;32845;59.422;17.930;2023-06-26T02:09:02;6.82;;;3.50;;
44694;SDS011;32845;59.422;17.930;2023-06-26T02:13:33;5.00;;;2.80;;
44694;SDS011;32845;59.422;17.930;2023-06-26T02:18:04;5.20;;;3.50;;
44694;SDS011;32845;59.422;17.930;2023-06-26T02:22:39;4.25;;;3.17;;
44694;SDS011;32845;59.422;17.930;2023-06-26T02:27:10;6.35;;;3.53;;
44694;SDS011;32845;59.422;17.930;2023-06-26T02:31:41;15.90;;;3.13;;
44694;SDS011;32845;59.422;17.930;2023-06-26T02:36:11;12.48;;;3.15;;
44694;SDS011;32845;59.422;17.930;2023-06-26T02:40:42;5.22;;;3.33;;
44694;SDS011;32845;59.422;17.930;2023-06-26T02:45:13;6.15;;;3.42;;
44694;SDS011;32845;59.422;17.930;2023-06-26T02:49:43;6.25;;;2.92;;
44694;SDS011;32845;59.422;17.930;2023-06-26T02:54:14;7.22;;;3.50;;
44694;SDS011;32845;59.422;17.930;2023-06-26T02:58:44;9.00;;;3.00;;
44694;SDS011;32845;59.422;17.930;2023-06-26T03:03:15;5.82;;;3.53;;
44694;SDS011;32845;59.422;17.930;2023-06-26T03:07:45;6.90;;;3.10;;
44694;SDS011;32845;59.422;17.930;2023-06-26T03:12:16;12.38;;;3.20;;
44694;SDS011;32845;59.422;17.930;2023-06-26T03:16:46;6.20;;;3.63;;
44694;SDS011;32845;59.422;17.930;2023-06-26T03:21:17;5.15;;;3.03;;
44694;SDS011;32845;59.422;17.930;2023-06-26T03:25:48;5.63;;;2.90;;
44694;SDS011;32845;59.422;17.930;2023-06-26T03:30:19;8.32;;;2.85;;
44694;SDS011;32845;59.422;17.930;2023-06-26T03:34:49;7.53;;;3.33;;
44694;SDS011;32845;59.422;17.930;2023-06-26T03:39:20;13.55;;;3.20;;
44694;SDS011;32845;59.422;17.930;2023-06-26T03:43:52;6.25;;;2.90;;
44694;SDS011;32845;59.422;17.930;2023-06-26T03:48:22;7.03;;;2.95;;
44694;SDS011;32845;59.422;17.930;2023-06-26T03:52:53;5.20;;;3.15;;
44694;SDS011;32845;59.422;17.930;2023-06-26T03:57:24;6.00;;;3.28;;
44694;SDS011;32845;59.422;17.930;2023-06-26T04:01:55;9.00;;;3.20;;
44694;SDS011;32845;59.422;17.930;2023-06-26T04:06:26;5.32;;;3.40;;
44694;SDS011;32845;59.422;17.930;2023-06-26T04:10:57;5.57;;;3.28;;
44694;SDS011;32845;59.422;17.930;2023-06-26T04:15:28;4.80;;;3.25;;
44694;SDS011;32845;59.422;17.930;2023-06-26T04:19:59;5.60;;;3.25;;
44694;SDS011;32845;59.422;17.930;2023-06-26T04:24:29;8.75;;;3.25;;
44694;SDS011;32845;59.422;17.930;2023-06-26T04:29:00;8.32;;;3.50;;
44694;SDS011;32845;59.422;17.930;2023-06-26T04:33:31;4.70;;;2.95;;
44694;SDS011;32845;59.422;17.930;2023-06-26T04:38:02;7.70;;;3.20;;
44694;SDS011;32845;59.422;17.930;2023-06-26T04:42:32;9.68;;;4.13;;
44694;SDS011;32845;59.422;17.930;2023-06-26T04:47:03;5.25;;;3.47;;
44694;SDS011;32845;59.422;17.930;2023-06-26T04:51:34;14.07;;;3.33;;
44694;SDS011;32845;59.422;17.930;2023-06-26T04:56:10;5.88;;;3.30;;
44694;SDS011;32845;59.422;17.930;2023-06-26T05:00:41;5.30;;;3.05;;
44694;SDS011;32845;59.422;17.930;2023-06-26T05:05:12;5.43;;;3.60;;
44694;SDS011;32845;59.422;17.930;2023-06-26T05:09:43;8.07;;;3.05;;
44694;SDS011;32845;59.422;17.930;2023-06-26T05:14:14;6.40;;;3.20;;
44694;SDS011;32845;59.422;17.930;2023-06-26T05:18:44;7.55;;;4.00;;
44694;SDS011;32845;59.422;17.930;2023-06-26T05:23:15;7.93;;;3.17;;
44694;SDS011;32845;59.422;17.930;2023-06-26T05:27:46;5.13;;;3.13;;
44694;SDS011;32845;59.422;17.930;2023-06-26T05:32:18;6.40;;;3.63;;
44694;SDS011;32845;59.422;17.930;2023-06-26T05:36:50;4.80;;;2.90;;
44694;SDS011;32845;59.422;17.930;2023-06-26T05:41:21;3.95;;;3.28;;
44694;SDS011;32845;59.422;17.930;2023-06-26T05:45:52;5.13;;;3.03;;
44694;SDS011;32845;59.422;17.930;2023-06-26T05:50:33;5.10;;;3.17;;
44694;SDS011;32845;59.422;17.930;2023-06-26T05:55:04;7.97;;;3.50;;
44694;SDS011;32845;59.422;17.930;2023-06-26T05:59:36;4.53;;;3.03;;
44694;SDS011;32845;59.422;17.930;2023-06-26T06:04:14;4.25;;;2.90;;
44694;SDS011;32845;59.422;17.930;2023-06-26T06:08:45;5.30;;;2.75;;
44694;SDS011;32845;59.422;17.930;2023-06-26T06:13:30;4.70;;;3.10;;
44694;SDS011;32845;59.422;17.930;2023-06-26T06:18:01;4.22;;;2.65;;
44694;SDS011;32845;59.422;17.930;2023-06-26T06:22:32;8.82;;;2.20;;
44694;SDS011;32845;59.422;17.930;2023-06-26T06:27:02;9.68;;;2.47;;
44694;SDS011;32845;59.422;17.930;2023-06-26T06:31:33;3.28;;;2.40;;
44694;SDS011;32845;59.422;17.930;2023-06-26T06:36:04;3.35;;;2.38;;
44694;SDS011;32845;59.422;17.930;2023-06-26T06:40:35;3.00;;;2.08;;
44694;SDS011;32845;59.422;17.930;2023-06-26T06:45:05;3.60;;;1.80;;
44694;SDS011;32845;59.422;17.930;2023-06-26T06:49:36;7.25;;;2.67;;
44694;SDS011;32845;59.422;17.930;2023-06-26T06:54:07;4.43;;;2.20;;
44694;SDS011;32845;59.422;17.930;2023-06-26T06:58:37;3.25;;;2.10;;
44694;SDS011;32845;59.422;17.930;2023-06-26T07:03:13;5.40;;;1.80;;
44694;SDS011;32845;59.422;17.930;2023-06-26T07:07:44;5.03;;;1.98;;
44694;SDS011;32845;59.422;17.930;2023-06-26T07:12:19;2.72;;;2.00;;
44694;SDS011;32845;59.422;17.930;2023-06-26T07:16:50;3.97;;;2.10;;
44694;SDS011;32845;59.422;17.930;2023-06-26T07:21:25;3.92;;;1.83;;
44694;SDS011;32845;59.422;17.930;2023-06-26T07:25:56;4.13;;;2.25;;
44694;SDS011;32845;59.422;17.930;2023-06-26T07:30:32;3.58;;;2.10;;
44694;SDS011;32845;59.422;17.930;2023-06-26T07:35:03;3.70;;;1.95;;
44694;SDS011;32845;59.422;17.930;2023-06-26T07:39:35;2.78;;;1.67;;
44694;SDS011;32845;59.422;17.930;2023-06-26T07:44:05;4.10;;;2.53;;
44694;SDS011;32845;59.422;17.930;2023-06-26T07:48:36;2.10;;;1.45;;
44694;SDS011;32845;59.422;17.930;2023-06-26T07:53:06;7.53;;;1.75;;
44694;SDS011;32845;59.422;17.930;2023-06-26T07:57:37;3.55;;;1.80;;
44694;SDS011;32845;59.422;17.930;2023-06-26T08:02:08;2.40;;;1.60;;
44694;SDS011;32845;59.422;17.930;2023-06-26T08:06:38;5.63;;;1.60;;
44694;SDS011;32845;59.422;17.930;2023-06-26T08:11:10;3.25;;;1.35;;
44694;SDS011;32845;59.422;17.930;2023-06-26T08:15:40;2.60;;;1.60;;
44694;SDS011;32845;59.422;17.930;2023-06-26T08:20:11;1.80;;;1.55;;
44694;SDS011;32845;59.422;17.930;2023-06-26T08:24:42;3.28;;;1.80;;
44694;SDS011;32845;59.422;17.930;2023-06-26T08:29:13;2.38;;;1.58;;
44694;SDS011;32845;59.422;17.930;2023-06-26T08:33:54;2.42;;;1.50;;
44694;SDS011;32845;59.422;17.930;2023-06-26T08:38:24;4.82;;;1.60;;
44694;SDS011;32845;59.422;17.930;2023-06-26T08:43:05;4.30;;;1.50;;
44694;SDS011;32845;59.422;17.930;2023-06-26T08:47:35;4.93;;;1.60;;
44694;SDS011;32845;59.422;17.930;2023-06-26T08:52:17;7.20;;;1.50;;
44694;SDS011;32845;59.422;17.930;2023-06-26T08:56:54;2.83;;;1.25;;
44694;SDS011;32845;59.422;17.930;2023-06-26T09:01:25;3.72;;;1.40;;
44694;SDS011;32845;59.422;17.930;2023-06-26T09:05:56;3.45;;;1.30;;
44694;SDS011;32845;59.422;17.930;2023-06-26T09:10:31;2.63;;;1.20;;
44694;SDS011;32845;59.422;17.930;2023-06-26T09:15:02;3.92;;;1.15;;
44694;SDS011;32845;59.422;17.930;2023-06-26T09:19:36;2.25;;;1.30;;
44694;SDS011;32845;59.422;17.930;2023-06-26T09:24:08;2.33;;;1.30;;
44694;SDS011;32845;59.422;17.930;2023-06-26T09:28:41;2.45;;;1.50;;
44694;SDS011;32845;59.422;17.930;2023-06-26T09:33:22;3.20;;;1.80;;
44694;SDS011;32845;59.422;17.930;2023-06-26T09:37:52;2.28;;;1.60;;
44694;SDS011;32845;59.422;17.930;2023-06-26T09:42:23;4.25;;;1.80;;
44694;SDS011;32845;59.422;17.930;2023-06-26T09:46:54;3.58;;;1.48;;
44694;SDS011;32845;59.422;17.930;2023-06-26T09:51:34;1.83;;;1.45;;
44694;SDS011;32845;59.422;17.930;2023-06-26T09:56:06;1.92;;;1.35;;
44694;SDS011;32845;59.422;17.930;2023-06-26T10:00:38;2.55;;;1.55;;
44694;SDS011;32845;59.422;17.930;2023-06-26T10:05:09;1.23;;;1.13;;
44694;SDS011;32845;59.422;17.930;2023-06-26T10:09:43;2.38;;;1.27;;
44694;SDS011;32845;59.422;17.930;2023-06-26T10:14:16;1.98;;;1.50;;
44694;SDS011;32845;59.422;17.930;2023-06-26T10:18:48;1.55;;;1.27;;
44694;SDS011;32845;59.422;17.930;2023-06-26T10:23:21;1.33;;;1.23;;
44694;SDS011;32845;59.422;17.930;2023-06-26T10:27:54;3.75;;;1.30;;
44694;SDS011;32845;59.422;17.930;2023-06-26T10:32:28;8.50;;;1.50;;
44694;SDS011;32845;59.422;17.930;2023-06-26T10:37:00;2.45;;;1.40;;
44694;SDS011;32845;59.422;17.930;2023-06-26T10:41:38;3.50;;;1.38;;
44694;SDS011;32845;59.422;17.930;2023-06-26T10:46:15;1.58;;;1.33;;
44694;SDS011;32845;59.422;17.930;2023-06-26T10:50:49;1.90;;;1.60;;
44694;SDS011;32845;59.422;17.930;2023-06-26T10:55:26;2.22;;;1.35;;
44694;SDS011;32845;59.422;17.930;2023-06-26T11:00:09;2.90;;;1.20;;
44694;SDS011;32845;59.422;17.930;2023-06-26T11:04:45;1.73;;;1.15;;
44694;SDS011;32845;59.422;17.930;2023-06-26T11:09:18;4.32;;;1.38;;
44694;SDS011;32845;59.422;17.930;2023-06-26T11:13:54;3.45;;;1.30;;
44694;SDS011;32845;59.422;17.930;2023-06-26T11:18:25;4.30;;;1.25;;
44694;SDS011;32845;59.422;17.930;2023-06-26T11:22:56;8.82;;;1.50;;
44694;SDS011;32845;59.422;17.930;2023-06-26T11:27:45;1.83;;;1.23;;
44694;SDS011;32845;59.422;17.930;2023-06-26T11:32:16;1.60;;;1.17;;
44694;SDS011;32845;59.422;17.930;2023-06-26T11:36:46;6.30;;;1.27;;
44694;SDS011;32845;59.422;17.930;2023-06-26T11:41:25;5.82;;;1.35;;
44694;SDS011;32845;59.422;17.930;2023-06-26T11:46:02;1.73;;;1.20;;
44694;SDS011;32845;59.422;17.930;2023-06-26T11:50:43;2.67;;;1.00;;
44694;SDS011;32845;59.422;17.930;2023-06-26T11:55:14;1.70;;;1.15;;
44694;SDS011;32845;59.422;17.930;2023-06-26T11:59:44;1.52;;;1.20;;
44694;SDS011;32845;59.422;17.930;2023-06-26T12:04:20;1.10;;;1.00;;
44694;SDS011;32845;59.422;17.930;2023-06-26T12:08:51;2.42;;;1.02;;
44694;SDS011;32845;59.422;17.930;2023-06-26T12:13:27;3.00;;;1.20;;
44694;SDS011;32845;59.422;17.930;2023-06-26T12:17:58;3.45;;;1.10;;
44694;SDS011;32845;59.422;17.930;2023-06-26T12:22:33;2.05;;;1.08;;
44694;SDS011;32845;59.422;17.930;2023-06-26T12:27:08;2.15;;;0.88;;
44694;SDS011;32845;59.422;17.930;2023-06-26T12:31:43;1.20;;;0.93;;
44694;SDS011;32845;59.422;17.930;2023-06-26T12:36:15;0.88;;;0.80;;
44694;SDS011;32845;59.422;17.930;2023-06-26T12:40:46;1.58;;;0.95;;
44694;SDS011;32845;59.422;17.930;2023-06-26T12:45:16;1.38;;;0.95;;
44694;SDS011;32845;59.422;17.930;2023-06-26T12:49:50;2.80;;;0.93;;
44694;SDS011;32845;59.422;17.930;2023-06-26T12:54:21;1.42;;;0.90;;
44694;SDS011;32845;59.422;17.930;2023-06-26T12:58:52;1.98;;;1.15;;
44694;SDS011;32845;59.422;17.930;2023-06-26T13:03:22;5.28;;;1.00;;
44694;SDS011;32845;59.422;17.930;2023-06-26T13:07:53;0.90;;;0.90;;
44694;SDS011;32845;59.422;17.930;2023-06-26T13:12:40;6.55;;;1.00;;
44694;SDS011;32845;59.422;17.930;2023-06-26T13:17:11;0.90;;;0.80;;
44694;SDS011;32845;59.422;17.930;2023-06-26T13:21:41;0.73;;;0.73;;
44694;SDS011;32845;59.422;17.930;2023-06-26T13:26:12;0.80;;;0.60;;
44694;SDS011;32845;59.422;17.930;2023-06-26T13:30:43;3.90;;;0.80;;
44694;SDS011;32845;59.422;17.930;2023-06-26T13:35:14;1.00;;;0.90;;
44694;SDS011;32845;59.422;17.930;2023-06-26T13:39:44;1.00;;;0.90;;
44694;SDS011;32845;59.422;17.930;2023-06-26T13:44:19;2.55;;;1.00;;
44694;SDS011;32845;59.422;17.930;2023-06-26T13:48:50;1.52;;;0.90;;
44694;SDS011;32845;59.422;17.930;2023-06-26T13:53:20;1.30;;;0.80;;
44694;SDS011;32845;59.422;17.930;2023-06-26T13:57:51;5.75;;;1.15;;
44694;SDS011;32845;59.422;17.930;2023-06-26T14:02:22;2.55;;;0.90;;
44694;SDS011;32845;59.422;17.930;2023-06-26T14:06:52;1.63;;;0.80;;
44694;SDS011;32845;59.422;17.930;2023-06-26T14:11:28;4.38;;;0.93;;
44694;SDS011;32845;59.422;17.930;2023-06-26T14:15:58;1.73;;;1.00;;
44694;SDS011;32845;59.422;17.930;2023-06-26T14:20:29;0.88;;;0.80;;
44694;SDS011;32845;59.422;17.930;2023-06-26T14:25:02;1.10;;;1.00;;
44694;SDS011;32845;59.422;17.930;2023-06-26T14:29:33;1.08;;;0.95;;
44694;SDS011;32845;59.422;17.930;2023-06-26T14:34:14;1.20;;;1.00;;
44694;SDS011;32845;59.422;17.930;2023-06-26T14:38:45;2.97;;;1.08;;
44694;SDS011;32845;59.422;17.930;2023-06-26T14:43:21;1.25;;;0.80;;
44694;SDS011;32845;59.422;17.930;2023-06-26T14:47:51;1.10;;;1.00;;
44694;SDS011;32845;59.422;17.930;2023-06-26T14:52:22;1.50;;;1.20;;
44694;SDS011;32845;59.422;17.930;2023-06-26T14:56:52;1.60;;;1.23;;
44694;SDS011;32845;59.422;17.930;2023-06-26T15:01:33;6.88;;;1.15;;
44694;SDS011;32845;59.422;17.930;2023-06-26T15:06:04;1.35;;;1.00;;
44694;SDS011;32845;59.422;17.930;2023-06-26T15:10:44;2.58;;;1.38;;
44694;SDS011;32845;59.422;17.930;2023-06-26T15:15:15;0.90;;;0.85;;
44694;SDS011;32845;59.422;17.930;2023-06-26T15:19:47;1.80;;;1.10;;
44694;SDS011;32845;59.422;17.930;2023-06-26T15:24:18;2.10;;;0.93;;
44694;SDS011;32845;59.422;17.930;2023-06-26T15:28:48;1.50;;;1.02;;
44694;SDS011;32845;59.422;17.930;2023-06-26T15:33:24;1.13;;;0.90;;
44694;SDS011;32845;59.422;17.930;2023-06-26T15:37:54;3.22;;;0.93;;
44694;SDS011;32845;59.422;17.930;2023-06-26T15:42:30;3.15;;;1.17;;
44694;SDS011;32845;59.422;17.930;2023-06-26T15:47:00;1.08;;;0.95;;
44694;SDS011;32845;59.422;17.930;2023-06-26T15:51:31;1.13;;;0.90;;
44694;SDS011;32845;59.422;17.930;2023-06-26T15:56:10;1.17;;;0.93;;
44694;SDS011;32845;59.422;17.930;2023-06-26T16:00:41;3.92;;;1.30;;
44694;SDS011;32845;59.422;17.930;2023-06-26T16:05:11;2.33;;;1.15;;
44694;SDS011;32845;59.422;17.930;2023-06-26T16:09:42;1.40;;;0.90;;
44694;SDS011;32845;59.422;17.930;2023-06-26T16:14:13;1.30;;;1.00;;
44694;SDS011;32845;59.422;17.930;2023-06-26T16:18:43;1.70;;;1.15;;
44694;SDS011;32845;59.422;17.930;2023-06-26T16:23:14;2.22;;;1.38;;
44694;SDS011;32845;59.422;17.930;2023-06-26T16:27:44;1.83;;;1.10;;
44694;SDS011;32845;59.422;17.930;2023-06-26T16:32:15;2.65;;;1.27;;
44694;SDS011;32845;59.422;17.930;2023-06-26T16:36:46;2.50;;;1.23;;
44694;SDS011;32845;59.422;17.930;2023-06-26T16:41:18;1.13;;;0.85;;
44694;SDS011;32845;59.422;17.930;2023-06-26T16:45:49;2.30;;;1.25;;
44694;SDS011;32845;59.422;17.930;2023-06-26T16:50:20;1.55;;;1.27;;
44694;SDS011;32845;59.422;17.930;2023-06-26T16:54:50;1.92;;;1.30;;
44694;SDS011;32845;59.422;17.930;2023-06-26T16:59:21;1.88;;;1.17;;
44694;SDS011;32845;59.422;17.930;2023-06-26T17:03:52;6.35;;;1.20;;
44694;SDS011;32845;59.422;17.930;2023-06-26T17:08:22;2.05;;;1.45;;
44694;SDS011;32845;59.422;17.930;2023-06-26T17:12:53;2.45;;;1.73;;
44694;SDS011;32845;59.422;17.930;2023-06-26T17:17:23;1.60;;;1.38;;
44694;SDS011;32845;59.422;17.930;2023-06-26T17:21:59;1.55;;;1.27;;
44694;SDS011;32845;59.422;17.930;2023-06-26T17:26:30;3.25;;;1.55;;
44694;SDS011;32845;59.422;17.930;2023-06-26T17:31:01;3.33;;;1.38;;
44694;SDS011;32845;59.422;17.930;2023-06-26T17:35:31;2.20;;;1.67;;
44694;SDS011;32845;59.422;17.930;2023-06-26T17:40:04;7.68;;;1.60;;
44694;SDS011;32845;59.422;17.930;2023-06-26T17:44:38;3.47;;;1.60;;
44694;SDS011;32845;59.422;17.930;2023-06-26T17:49:09;2.28;;;1.70;;
44694;SDS011;32845;59.422;17.930;2023-06-26T17:53:39;1.75;;;1.40;;
44694;SDS011;32845;59.422;17.930;2023-06-26T17:58:10;3.75;;;1.95;;
44694;SDS011;32845;59.422;17.930;2023-06-26T18:02:40;3.15;;;1.60;;
44694;SDS011;32845;59.422;17.930;2023-06-26T18:07:11;2.40;;;1.40;;
44694;SDS011;32845;59.422;17.930;2023-06-26T18:11:42;1.80;;;1.60;;
44694;SDS011;32845;59.422;17.930;2023-06-26T18:16:12;2.83;;;1.85;;
44694;SDS011;32845;59.422;17.930;2023-06-26T18:20:44;2.08;;;1.48;;
44694;SDS011;32845;59.422;17.930;2023-06-26T18:25:14;9.30;;;1.70;;
44694;SDS011;32845;59.422;17.930;2023-06-26T18:29:45;7.10;;;1.55;;
44694;SDS011;32845;59.422;17.930;2023-06-26T18:34:16;3.83;;;1.60;;
44694;SDS011;32845;59.422;17.930;2023-06-26T18:38:46;1.70;;;1.60;;
44694;SDS011;32845;59.422;17.930;2023-06-26T18:43:17;2.40;;;1.67;;
44694;SDS011;32845;59.422;17.930;2023-06-26T18:47:50;3.63;;;1.88;;
44694;SDS011;32845;59.422;17.930;2023-06-26T18:52:22;4.07;;;1.70;;
44694;SDS011;32845;59.422;17.930;2023-06-26T18:56:52;2.22;;;1.90;;
44694;SDS011;32845;59.422;17.930;2023-06-26T19:01:24;3.35;;;1.85;;
44694;SDS011;32845;59.422;17.930;2023-06-26T19:05:54;10.50;;;1.83;;
44694;SDS011;32845;59.422;17.930;2023-06-26T19:10:25;2.75;;;1.88;;
44694;SDS011;32845;59.422;17.930;2023-06-26T19:14:56;3.03;;;1.88;;
44694;SDS011;32845;59.422;17.930;2023-06-26T19:19:26;3.88;;;1.80;;
44694;SDS011;32845;59.422;17.930;2023-06-26T19:23:57;4.43;;;1.70;;
44694;SDS011;32845;59.422;17.930;2023-06-26T19:28:27;3.55;;;1.70;;
44694;SDS011;32845;59.422;17.930;2023-06-26T19:32:58;2.55;;;1.58;;
44694;SDS011;32845;59.422;17.930;2023-06-26T19:37:29;4.05;;;2.20;;
44694;SDS011;32845;59.422;17.930;2023-06-26T19:41:59;3.72;;;1.75;;
44694;SDS011;32845;59.422;17.930;2023-06-26T19:46:30;3.40;;;1.90;;
44694;SDS011;32845;59.422;17.930;2023-06-26T19:51:00;3.42;;;2.05;;
44694;SDS011;32845;59.422;17.930;2023-06-26T19:55:32;3.10;;;1.65;;
44694;SDS011;32845;59.422;17.930;2023-06-26T20:00:03;2.10;;;1.70;;
44694;SDS011;32845;59.422;17.930;2023-06-26T20:04:34;2.95;;;1.35;;
44694;SDS011;32845;59.422;17.930;2023-06-26T20:09:06;5.55;;;1.70;;
44694;SDS011;32845;59.422;17.930;2023-06-26T20:13:36;2.95;;;2.00;;
44694;SDS011;32845;59.422;17.930;2023-06-26T20:18:07;5.65;;;1.88;;
44694;SDS011;32845;59.422;17.930;2023-06-26T20:22:37;3.00;;;1.80;;
44694;SDS011;32845;59.422;17.930;2023-06-26T20:27:08;5.22;;;1.90;;
44694;SDS011;32845;59.422;17.930;2023-06-26T20:31:39;5.22;;;2.03;;
44694;SDS011;32845;59.422;17.930;2023-06-26T20:36:10;4.15;;;2.05;;
44694;SDS011;32845;59.422;17.930;2023-06-26T20:40:40;7.15;;;2.13;;
44694;SDS011;32845;59.422;17.930;2023-06-26T20:45:11;3.05;;;1.77;;
44694;SDS011;32845;59.422;17.930;2023-06-26T20:49:42;3.13;;;1.90;;
44694;SDS011;32845;59.422;17.930;2023-06-26T20:54:13;3.95;;;1.70;;
44694;SDS011;32845;59.422;17.930;2023-06-26T20:58:44;2.50;;;1.85;;
44694;SDS011;32845;59.422;17.930;2023-06-26T21:03:14;4.30;;;1.95;;
44694;SDS011;32845;59.422;17.930;2023-06-26T21:07:45;3.38;;;1.75;;
44694;SDS011;32845;59.422;17.930;2023-06-26T21:12:17;4.47;;;1.45;;
44694;SDS011;32845;59.422;17.930;2023-06-26T21:16:48;3.85;;;1.98;;
44694;SDS011;32845;59.422;17.930;2023-06-26T21:21:19;2.58;;;1.75;;
44694;SDS011;32845;59.422;17.930;2023-06-26T21:25:50;2.70;;;1.90;;
44694;SDS011;32845;59.422;17.930;2023-06-26T21:30:20;2.30;;;1.85;;
44694;SDS011;32845;59.422;17.930;2023-06-26T21:34:51;3.65;;;2.38;;
44694;SDS011;32845;59.422;17.930;2023-06-26T21:39:22;11.07;;;1.92;;
44694;SDS011;32845;59.422;17.930;2023-06-26T21:43:52;5.65;;;2.13;;
44694;SDS011;32845;59.422;17.930;2023-06-26T21:48:23;3.67;;;1.90;;
44694;SDS011;32845;59.422;17.930;2023-06-26T21:52:53;4.45;;;2.50;;
44694;SDS011;32845;59.422;17.930;2023-06-26T21:57:24;2.95;;;2.15;;
44694;SDS011;32845;59.422;17.930;2023-06-26T22:01:55;3.80;;;2.17;;
44694;SDS011;32845;59.422;17.930;2023-06-26T22:06:25;2.67;;;2.00;;
44694;SDS011;32845;59.422;17.930;2023-06-26T22:10:56;7.47;;;2.25;;
44694;SDS011;32845;59.422;17.930;2023-06-26T22:15:26;2.70;;;1.90;;
44694;SDS011;32845;59.422;17.930;2023-06-26T22:19:57;3.38;;;2.38;;
44694;SDS011;32845;59.422;17.930;2023-06-26T22:24:28;5.50;;;2.05;;
44694;SDS011;32845;59.422;17.930;2023-06-26T22:28:59;2.35;;;1.75;;
44694;SDS011;32845;59.422;17.930;2023-06-26T22:33:29;3.03;;;2.20;;
44694;SDS011;32845;59.422;17.930;2023-06-26T22:38:00;3.35;;;2.15;;
44694;SDS011;32845;59.422;17.930;2023-06-26T22:42:31;3.42;;;2.33;;
44694;SDS011;32845;59.422;17.930;2023-06-26T22:47:01;2.92;;;1.70;;
44694;SDS011;32845;59.422;17.930;2023-06-26T22:51:32;4.05;;;1.90;;
44694;SDS011;32845;59.422;17.930;2023-06-26T22:56:03;2.40;;;1.80;;
44694;SDS011;32845;59.422;17.930;2023-06-26T23:00:34;3.67;;;1.95;;
44694;SDS011;32845;59.422;17.930;2023-06-26T23:05:07;3.03;;;1.80;;
44694;SDS011;32845;59.422;17.930;2023-06-26T23:09:40;3.70;;;2.28;;
44694;SDS011;32845;59.422;17.930;2023-06-26T23:14:11;3.58;;;2.28;;
44694;SDS011;32845;59.422;17.930;2023-06-26T23:18:41;2.75;;;2.10;;
44694;SDS011;32845;59.422;17.930;2023-06-26T23:23:12;3.17;;;2.08;;
44694;SDS011;32845;59.422;17.930;2023-06-26T23:27:43;4.20;;;2.13;;
44694;SDS011;32845;59.422;17.930;2023-06-26T23:32:14;2.95;;;1.83;;
44694;SDS011;32845;59.422;17.930;2023-06-26T23:36:46;4.28;;;2.85;;
44694;SDS011;32845;59.422;17.930;2023-06-26T23:41:24;7.38;;;2.33;;
44694;SDS011;32845;59.422;17.930;2023-06-26T23:45:55;4.45;;;2.28;;
44694;SDS011;32845;59.422;17.930;2023-06-26T23:50:27;5.60;;;2.78;;
44694;SDS011;32845;59.422;17.930;2023-06-26T23:54:57;3.47;;;2.55;;
44694;SDS011;32845;59.422;17.930;2023-06-26T23:59:28;3.92;;;2.55;;
